sensor_id;sensor_type;location;lat;lon;timestamp;pressure;altitude;pressure_sealevel;temperature;humidity
59588;BME280;45412;54.472;18.464;2023-08-12T00:01:31;100482.40;;;15.16;83.20
59588;BME280;45412;54.472;18.464;2023-08-12T00:04:17;100473.96;;;15.17;82.94
59588;BME280;45412;54.472;18.464;2023-08-12T00:07:04;100475.79;;;15.18;83.04
59588;BME280;45412;54.472;18.464;2023-08-12T00:09:50;100473.90;;;15.18;82.74
59588;BME280;45412;54.472;18.464;2023-08-12T00:12:38;100471.95;;;15.17;82.49
59588;BME280;45412;54.472;18.464;2023-08-12T00:15:25;100472.19;;;15.17;82.46
59588;BME280;45412;54.472;18.464;2023-08-12T00:18:12;100471.91;;;15.15;82.27
59588;BME280;45412;54.472;18.464;2023-08-12T00:20:59;100468.09;;;15.12;82.08
59588;BME280;45412;54.472;18.464;2023-08-12T00:23:46;100473.33;;;15.08;82.23
59588;BME280;45412;54.472;18.464;2023-08-12T00:26:34;100473.95;;;15.03;82.23
59588;BME280;45412;54.472;18.464;2023-08-12T00:29:21;100472.16;;;14.97;82.58
59588;BME280;45412;54.472;18.464;2023-08-12T00:32:09;100474.31;;;14.91;82.31
59588;BME280;45412;54.472;18.464;2023-08-12T00:34:56;100478.86;;;14.86;82.48
59588;BME280;45412;54.472;18.464;2023-08-12T00:37:43;100479.37;;;14.82;82.61
59588;BME280;45412;54.472;18.464;2023-08-12T00:40:29;100477.99;;;14.77;83.03
59588;BME280;45412;54.472;18.464;2023-08-12T00:43:16;100479.59;;;14.73;82.90
59588;BME280;45412;54.472;18.464;2023-08-12T00:46:04;100484.83;;;14.69;83.13
59588;BME280;45412;54.472;18.464;2023-08-12T00:48:51;100489.05;;;14.63;83.21
59588;BME280;45412;54.472;18.464;2023-08-12T00:51:41;100493.29;;;14.57;83.46
59588;BME280;45412;54.472;18.464;2023-08-12T00:54:28;100490.91;;;14.52;83.71
59588;BME280;45412;54.472;18.464;2023-08-12T00:57:15;100486.23;;;14.48;83.93
59588;BME280;45412;54.472;18.464;2023-08-12T01:00:04;100482.07;;;14.45;84.33
59588;BME280;45412;54.472;18.464;2023-08-12T01:02:51;100481.66;;;14.41;84.55
59588;BME280;45412;54.472;18.464;2023-08-12T01:05:38;100477.38;;;14.37;84.56
59588;BME280;45412;54.472;18.464;2023-08-12T01:08:31;100480.25;;;14.33;85.06
59588;BME280;45412;54.472;18.464;2023-08-12T01:11:32;100480.70;;;14.28;85.28
59588;BME280;45412;54.472;18.464;2023-08-12T01:14:47;100480.09;;;14.24;85.64
59588;BME280;45412;54.472;18.464;2023-08-12T01:17:39;100474.15;;;14.19;85.38
59588;BME280;45412;54.472;18.464;2023-08-12T01:20:28;100475.17;;;14.17;85.40
59588;BME280;45412;54.472;18.464;2023-08-12T01:23:16;100472.77;;;14.14;85.68
59588;BME280;45412;54.472;18.464;2023-08-12T01:26:03;100471.80;;;14.11;85.29
59588;BME280;45412;54.472;18.464;2023-08-12T01:28:50;100469.52;;;14.06;85.52
59588;BME280;45412;54.472;18.464;2023-08-12T01:31:45;100466.63;;;14.00;85.64
59588;BME280;45412;54.472;18.464;2023-08-12T01:35:11;100463.52;;;13.93;85.58
59588;BME280;45412;54.472;18.464;2023-08-12T01:38:05;100466.06;;;13.86;85.63
59588;BME280;45412;54.472;18.464;2023-08-12T01:40:53;100471.23;;;13.82;85.47
59588;BME280;45412;54.472;18.464;2023-08-12T01:43:42;100468.23;;;13.79;85.27
59588;BME280;45412;54.472;18.464;2023-08-12T01:46:30;100465.75;;;13.77;85.05
59588;BME280;45412;54.472;18.464;2023-08-12T01:49:17;100463.87;;;13.76;84.55
59588;BME280;45412;54.472;18.464;2023-08-12T01:52:05;100458.75;;;13.73;84.40
59588;BME280;45412;54.472;18.464;2023-08-12T01:54:51;100458.93;;;13.71;84.17
59588;BME280;45412;54.472;18.464;2023-08-12T01:57:40;100456.38;;;13.70;84.02
59588;BME280;45412;54.472;18.464;2023-08-12T02:00:27;100463.80;;;13.69;83.77
59588;BME280;45412;54.472;18.464;2023-08-12T02:03:14;100462.33;;;13.67;83.33
59588;BME280;45412;54.472;18.464;2023-08-12T02:06:00;100462.13;;;13.65;83.20
59588;BME280;45412;54.472;18.464;2023-08-12T02:08:47;100466.33;;;13.62;83.05
59588;BME280;45412;54.472;18.464;2023-08-12T02:11:34;100467.48;;;13.61;82.93
59588;BME280;45412;54.472;18.464;2023-08-12T02:14:23;100464.46;;;13.60;82.63
59588;BME280;45412;54.472;18.464;2023-08-12T02:17:09;100461.81;;;13.60;82.40
59588;BME280;45412;54.472;18.464;2023-08-12T02:19:56;100464.89;;;13.59;82.54
59588;BME280;45412;54.472;18.464;2023-08-12T02:22:44;100466.63;;;13.58;82.54
59588;BME280;45412;54.472;18.464;2023-08-12T02:25:31;100463.41;;;13.56;82.38
59588;BME280;45412;54.472;18.464;2023-08-12T02:28:19;100459.27;;;13.54;82.22
59588;BME280;45412;54.472;18.464;2023-08-12T02:31:05;100459.25;;;13.53;82.38
59588;BME280;45412;54.472;18.464;2023-08-12T02:33:52;100459.66;;;13.52;82.56
59588;BME280;45412;54.472;18.464;2023-08-12T02:36:39;100460.00;;;13.52;82.44
59588;BME280;45412;54.472;18.464;2023-08-12T02:39:25;100459.70;;;13.51;82.48
59588;BME280;45412;54.472;18.464;2023-08-12T02:42:12;100464.43;;;13.50;82.31
59588;BME280;45412;54.472;18.464;2023-08-12T02:44:59;100462.83;;;13.48;82.52
59588;BME280;45412;54.472;18.464;2023-08-12T02:47:46;100466.45;;;13.45;82.50
59588;BME280;45412;54.472;18.464;2023-08-12T02:50:33;100468.16;;;13.42;82.63
59588;BME280;45412;54.472;18.464;2023-08-12T02:53:20;100469.90;;;13.38;82.63
59588;BME280;45412;54.472;18.464;2023-08-12T02:56:06;100467.10;;;13.35;82.46
59588;BME280;45412;54.472;18.464;2023-08-12T02:58:52;100467.23;;;13.33;82.64
59588;BME280;45412;54.472;18.464;2023-08-12T03:01:41;100465.45;;;13.33;82.44
59588;BME280;45412;54.472;18.464;2023-08-12T03:04:29;100467.06;;;13.33;82.40
59588;BME280;45412;54.472;18.464;2023-08-12T03:07:18;100464.92;;;13.33;82.29
59588;BME280;45412;54.472;18.464;2023-08-12T03:10:05;100467.53;;;13.34;82.27
59588;BME280;45412;54.472;18.464;2023-08-12T03:12:52;100465.02;;;13.34;82.34
59588;BME280;45412;54.472;18.464;2023-08-12T03:15:41;100464.96;;;13.33;82.44
59588;BME280;45412;54.472;18.464;2023-08-12T03:18:29;100457.96;;;13.31;82.40
59588;BME280;45412;54.472;18.464;2023-08-12T03:21:16;100457.91;;;13.30;82.34
59588;BME280;45412;54.472;18.464;2023-08-12T03:24:03;100460.08;;;13.29;82.20
59588;BME280;45412;54.472;18.464;2023-08-12T03:26:50;100463.85;;;13.28;82.17
59588;BME280;45412;54.472;18.464;2023-08-12T03:29:38;100465.20;;;13.29;82.26
59588;BME280;45412;54.472;18.464;2023-08-12T03:32:25;100466.20;;;13.30;82.08
59588;BME280;45412;54.472;18.464;2023-08-12T03:35:12;100469.63;;;13.30;81.91
59588;BME280;45412;54.472;18.464;2023-08-12T03:37:59;100468.01;;;13.30;81.84
59588;BME280;45412;54.472;18.464;2023-08-12T03:40:46;100469.42;;;13.33;81.80
59588;BME280;45412;54.472;18.464;2023-08-12T03:43:35;100473.75;;;13.34;81.66
59588;BME280;45412;54.472;18.464;2023-08-12T03:46:23;100474.40;;;13.35;81.53
59588;BME280;45412;54.472;18.464;2023-08-12T03:49:11;100475.16;;;13.37;81.42
59588;BME280;45412;54.472;18.464;2023-08-12T03:51:58;100474.93;;;13.40;81.25
59588;BME280;45412;54.472;18.464;2023-08-12T03:54:45;100476.05;;;13.43;81.23
59588;BME280;45412;54.472;18.464;2023-08-12T03:57:32;100474.41;;;13.46;81.23
59588;BME280;45412;54.472;18.464;2023-08-12T04:00:19;100476.61;;;13.50;81.02
59588;BME280;45412;54.472;18.464;2023-08-12T04:03:06;100474.32;;;13.51;81.04
59588;BME280;45412;54.472;18.464;2023-08-12T04:05:53;100472.13;;;13.54;80.98
59588;BME280;45412;54.472;18.464;2023-08-12T04:08:42;100468.83;;;13.55;80.72
59588;BME280;45412;54.472;18.464;2023-08-12T04:11:29;100465.45;;;13.59;80.40
59588;BME280;45412;54.472;18.464;2023-08-12T04:14:15;100455.35;;;13.61;80.24
59588;BME280;45412;54.472;18.464;2023-08-12T04:17:03;100463.66;;;13.68;79.98
59588;BME280;45412;54.472;18.464;2023-08-12T04:19:51;100461.31;;;13.75;79.64
59588;BME280;45412;54.472;18.464;2023-08-12T04:22:37;100464.40;;;13.83;79.41
59588;BME280;45412;54.472;18.464;2023-08-12T04:25:25;100462.80;;;13.91;78.87
59588;BME280;45412;54.472;18.464;2023-08-12T04:28:13;100465.94;;;14.02;78.47
59588;BME280;45412;54.472;18.464;2023-08-12T04:31:00;100463.16;;;14.16;77.98
59588;BME280;45412;54.472;18.464;2023-08-12T04:33:47;100464.62;;;14.30;77.02
59588;BME280;45412;54.472;18.464;2023-08-12T04:36:36;100461.73;;;14.47;76.08
59588;BME280;45412;54.472;18.464;2023-08-12T04:39:24;100455.29;;;14.66;75.84
59588;BME280;45412;54.472;18.464;2023-08-12T04:42:11;100450.88;;;14.83;74.47
59588;BME280;45412;54.472;18.464;2023-08-12T04:44:59;100449.45;;;14.99;73.64
59588;BME280;45412;54.472;18.464;2023-08-12T04:47:46;100446.11;;;15.14;72.94
59588;BME280;45412;54.472;18.464;2023-08-12T04:50:34;100443.83;;;15.30;72.78
59588;BME280;45412;54.472;18.464;2023-08-12T04:53:21;100442.61;;;15.45;71.66
59588;BME280;45412;54.472;18.464;2023-08-12T04:56:08;100442.17;;;15.59;71.59
59588;BME280;45412;54.472;18.464;2023-08-12T04:58:55;100435.92;;;15.77;71.09
59588;BME280;45412;54.472;18.464;2023-08-12T05:01:43;100434.17;;;15.96;70.54
59588;BME280;45412;54.472;18.464;2023-08-12T05:04:50;100437.06;;;16.16;69.84
59588;BME280;45412;54.472;18.464;2023-08-12T05:07:38;100446.09;;;16.34;69.19
59588;BME280;45412;54.472;18.464;2023-08-12T05:10:27;100445.59;;;16.53;68.73
59588;BME280;45412;54.472;18.464;2023-08-12T05:13:14;100445.02;;;16.73;67.67
59588;BME280;45412;54.472;18.464;2023-08-12T05:16:02;100448.04;;;16.94;66.88
59588;BME280;45412;54.472;18.464;2023-08-12T05:18:48;100444.80;;;17.16;65.65
59588;BME280;45412;54.472;18.464;2023-08-12T05:21:35;100442.19;;;17.35;64.78
59588;BME280;45412;54.472;18.464;2023-08-12T05:24:22;100442.66;;;17.57;64.24
59588;BME280;45412;54.472;18.464;2023-08-12T05:27:08;100438.28;;;17.78;63.03
59588;BME280;45412;54.472;18.464;2023-08-12T05:29:55;100436.80;;;18.06;62.45
59588;BME280;45412;54.472;18.464;2023-08-12T05:32:42;100435.48;;;18.52;60.64
59588;BME280;45412;54.472;18.464;2023-08-12T05:35:33;100433.20;;;19.02;59.51
59588;BME280;45412;54.472;18.464;2023-08-12T05:38:20;100433.02;;;19.46;58.47
59588;BME280;45412;54.472;18.464;2023-08-12T05:41:07;100429.73;;;19.72;57.37
59588;BME280;45412;54.472;18.464;2023-08-12T05:43:55;100426.23;;;19.87;56.80
59588;BME280;45412;54.472;18.464;2023-08-12T05:46:41;100422.95;;;20.08;56.40
59588;BME280;45412;54.472;18.464;2023-08-12T05:49:28;100420.98;;;20.27;55.24
59588;BME280;45412;54.472;18.464;2023-08-12T05:52:14;100420.06;;;20.37;54.35
59588;BME280;45412;54.472;18.464;2023-08-12T05:55:02;100415.17;;;20.45;53.06
59588;BME280;45412;54.472;18.464;2023-08-12T05:57:49;100416.89;;;20.76;52.52
59588;BME280;45412;54.472;18.464;2023-08-12T06:00:35;100412.38;;;21.21;51.56
59588;BME280;45412;54.472;18.464;2023-08-12T06:03:22;100408.44;;;21.73;50.27
59588;BME280;45412;54.472;18.464;2023-08-12T06:06:08;100410.06;;;22.78;48.56
59588;BME280;45412;54.472;18.464;2023-08-12T06:08:55;100406.05;;;23.60;46.32
59588;BME280;45412;54.472;18.464;2023-08-12T06:11:41;100402.65;;;24.50;44.29
59588;BME280;45412;54.472;18.464;2023-08-12T06:14:29;100397.96;;;25.67;41.77
59588;BME280;45412;54.472;18.464;2023-08-12T06:17:16;100391.97;;;26.67;38.86
59588;BME280;45412;54.472;18.464;2023-08-12T06:20:03;100391.43;;;27.58;37.09
59588;BME280;45412;54.472;18.464;2023-08-12T06:22:51;100387.40;;;28.18;34.88
59588;BME280;45412;54.472;18.464;2023-08-12T06:25:38;100387.95;;;28.82;34.05
59588;BME280;45412;54.472;18.464;2023-08-12T06:28:25;100381.05;;;29.61;32.95
59588;BME280;45412;54.472;18.464;2023-08-12T06:31:12;100377.33;;;29.98;30.81
59588;BME280;45412;54.472;18.464;2023-08-12T06:33:58;100377.72;;;30.30;30.61
59588;BME280;45412;54.472;18.464;2023-08-12T06:36:46;100378.23;;;30.65;29.76
59588;BME280;45412;54.472;18.464;2023-08-12T06:39:32;100376.08;;;31.15;29.58
59588;BME280;45412;54.472;18.464;2023-08-12T06:42:19;100375.89;;;31.61;28.77
59588;BME280;45412;54.472;18.464;2023-08-12T06:45:07;100371.94;;;32.04;28.19
59588;BME280;45412;54.472;18.464;2023-08-12T06:47:54;100372.02;;;31.84;27.66
59588;BME280;45412;54.472;18.464;2023-08-12T06:50:41;100370.59;;;32.05;27.38
59588;BME280;45412;54.472;18.464;2023-08-12T06:53:28;100364.27;;;32.49;26.96
59588;BME280;45412;54.472;18.464;2023-08-12T06:56:15;100359.73;;;32.94;26.45
59588;BME280;45412;54.472;18.464;2023-08-12T06:59:01;100360.69;;;32.44;26.73
59588;BME280;45412;54.472;18.464;2023-08-12T07:01:48;100363.46;;;31.18;27.78
59588;BME280;45412;54.472;18.464;2023-08-12T07:04:35;100359.15;;;30.23;28.76
59588;BME280;45412;54.472;18.464;2023-08-12T07:07:24;100358.24;;;30.89;28.91
59588;BME280;45412;54.472;18.464;2023-08-12T07:10:10;100356.73;;;30.91;29.13
59588;BME280;45412;54.472;18.464;2023-08-12T07:12:57;100358.23;;;30.40;29.01
59588;BME280;45412;54.472;18.464;2023-08-12T07:15:44;100360.32;;;29.77;29.60
59588;BME280;45412;54.472;18.464;2023-08-12T07:18:30;100354.35;;;29.35;30.23
59588;BME280;45412;54.472;18.464;2023-08-12T07:21:17;100353.06;;;29.94;29.81
59588;BME280;45412;54.472;18.464;2023-08-12T07:24:05;100355.83;;;30.77;28.95
59588;BME280;45412;54.472;18.464;2023-08-12T07:26:52;100354.20;;;30.91;28.87
59588;BME280;45412;54.472;18.464;2023-08-12T07:29:38;100353.30;;;31.62;28.75
59588;BME280;45412;54.472;18.464;2023-08-12T07:32:25;100353.70;;;32.06;27.34
59588;BME280;45412;54.472;18.464;2023-08-12T07:35:12;100351.51;;;31.46;28.12
59588;BME280;45412;54.472;18.464;2023-08-12T07:37:58;100348.05;;;30.94;28.95
59588;BME280;45412;54.472;18.464;2023-08-12T07:40:45;100352.32;;;30.66;29.37
59588;BME280;45412;54.472;18.464;2023-08-12T07:43:31;100352.52;;;30.06;29.32
59588;BME280;45412;54.472;18.464;2023-08-12T07:46:18;100351.30;;;29.61;30.03
59588;BME280;45412;54.472;18.464;2023-08-12T07:49:05;100359.96;;;29.21;30.55
59588;BME280;45412;54.472;18.464;2023-08-12T07:51:52;100358.64;;;28.88;31.24
59588;BME280;45412;54.472;18.464;2023-08-12T07:54:38;100358.80;;;28.51;31.76
59588;BME280;45412;54.472;18.464;2023-08-12T07:57:25;100354.18;;;27.96;32.25
59588;BME280;45412;54.472;18.464;2023-08-12T08:00:12;100351.36;;;27.59;33.16
59588;BME280;45412;54.472;18.464;2023-08-12T08:02:59;100348.14;;;27.41;33.69
59588;BME280;45412;54.472;18.464;2023-08-12T08:05:46;100351.16;;;27.15;34.39
59588;BME280;45412;54.472;18.464;2023-08-12T08:08:33;100351.48;;;26.93;34.93
59588;BME280;45412;54.472;18.464;2023-08-12T08:11:20;100349.73;;;26.59;34.97
59588;BME280;45412;54.472;18.464;2023-08-12T08:14:06;100345.87;;;26.57;35.48
59588;BME280;45412;54.472;18.464;2023-08-12T08:16:53;100349.86;;;26.66;35.64
59588;BME280;45412;54.472;18.464;2023-08-12T08:19:41;100348.41;;;26.74;35.68
59588;BME280;45412;54.472;18.464;2023-08-12T08:22:28;100350.33;;;26.96;35.35
59588;BME280;45412;54.472;18.464;2023-08-12T08:25:18;100342.41;;;27.26;35.10
59588;BME280;45412;54.472;18.464;2023-08-12T08:28:05;100341.26;;;27.59;34.59
59588;BME280;45412;54.472;18.464;2023-08-12T08:30:52;100335.54;;;27.96;33.94
59588;BME280;45412;54.472;18.464;2023-08-12T08:33:39;100338.98;;;28.50;33.32
59588;BME280;45412;54.472;18.464;2023-08-12T08:36:27;100345.05;;;28.90;32.27
59588;BME280;45412;54.472;18.464;2023-08-12T08:39:14;100340.36;;;29.10;31.11
59588;BME280;45412;54.472;18.464;2023-08-12T08:42:02;100337.30;;;29.03;31.39
59588;BME280;45412;54.472;18.464;2023-08-12T08:44:53;100339.42;;;29.02;31.63
59588;BME280;45412;54.472;18.464;2023-08-12T08:47:41;100334.81;;;29.37;31.81
59588;BME280;45412;54.472;18.464;2023-08-12T08:50:32;100331.64;;;29.48;31.28
59588;BME280;45412;54.472;18.464;2023-08-12T08:53:20;100324.85;;;29.60;31.16
59588;BME280;45412;54.472;18.464;2023-08-12T08:56:08;100322.58;;;29.55;31.15
59588;BME280;45412;54.472;18.464;2023-08-12T08:59:01;100328.46;;;29.77;30.96
59588;BME280;45412;54.472;18.464;2023-08-12T09:01:49;100330.50;;;30.48;30.22
59588;BME280;45412;54.472;18.464;2023-08-12T09:04:38;100331.58;;;30.91;29.16
59588;BME280;45412;54.472;18.464;2023-08-12T09:07:25;100323.80;;;31.11;28.69
59588;BME280;45412;54.472;18.464;2023-08-12T09:10:12;100318.26;;;31.39;28.56
59588;BME280;45412;54.472;18.464;2023-08-12T09:13:02;100316.75;;;31.71;28.27
59588;BME280;45412;54.472;18.464;2023-08-12T09:15:49;100308.16;;;32.21;27.71
59588;BME280;45412;54.472;18.464;2023-08-12T09:18:38;100317.27;;;32.83;26.66
59588;BME280;45412;54.472;18.464;2023-08-12T09:21:24;100318.82;;;33.31;26.13
59588;BME280;45412;54.472;18.464;2023-08-12T09:24:12;100315.45;;;33.41;25.70
59588;BME280;45412;54.472;18.464;2023-08-12T09:26:59;100318.04;;;33.37;25.86
59588;BME280;45412;54.472;18.464;2023-08-12T09:29:45;100314.53;;;33.55;25.53
59588;BME280;45412;54.472;18.464;2023-08-12T09:32:32;100307.79;;;33.43;25.49
59588;BME280;45412;54.472;18.464;2023-08-12T09:35:21;100304.45;;;33.78;25.58
59588;BME280;45412;54.472;18.464;2023-08-12T09:38:12;100307.62;;;34.06;24.88
59588;BME280;45412;54.472;18.464;2023-08-12T09:41:00;100303.38;;;34.06;24.92
59588;BME280;45412;54.472;18.464;2023-08-12T09:43:47;100299.75;;;34.10;25.17
59588;BME280;45412;54.472;18.464;2023-08-12T09:46:34;100296.61;;;34.30;25.30
59588;BME280;45412;54.472;18.464;2023-08-12T09:49:21;100295.05;;;34.64;24.72
59588;BME280;45412;54.472;18.464;2023-08-12T09:52:08;100297.52;;;35.14;24.07
59588;BME280;45412;54.472;18.464;2023-08-12T09:54:56;100298.26;;;35.25;24.13
59588;BME280;45412;54.472;18.464;2023-08-12T09:57:44;100296.34;;;35.02;24.14
59588;BME280;45412;54.472;18.464;2023-08-12T10:00:31;100291.96;;;35.30;23.95
59588;BME280;45412;54.472;18.464;2023-08-12T10:03:20;100296.43;;;35.65;23.44
59588;BME280;45412;54.472;18.464;2023-08-12T10:06:07;100296.04;;;35.45;23.09
59588;BME280;45412;54.472;18.464;2023-08-12T10:08:56;100291.79;;;35.62;23.43
59588;BME280;45412;54.472;18.464;2023-08-12T10:11:45;100286.61;;;35.92;23.19
59588;BME280;45412;54.472;18.464;2023-08-12T10:14:33;100280.48;;;35.87;22.85
59588;BME280;45412;54.472;18.464;2023-08-12T10:17:20;100284.66;;;35.96;22.83
59588;BME280;45412;54.472;18.464;2023-08-12T10:20:29;100289.30;;;35.38;23.48
59588;BME280;45412;54.472;18.464;2023-08-12T10:23:17;100280.52;;;35.53;23.60
59588;BME280;45412;54.472;18.464;2023-08-12T10:26:06;100280.58;;;35.92;23.45
59588;BME280;45412;54.472;18.464;2023-08-12T10:28:54;100272.90;;;35.89;23.13
59588;BME280;45412;54.472;18.464;2023-08-12T10:31:41;100273.79;;;36.00;23.10
59588;BME280;45412;54.472;18.464;2023-08-12T10:34:31;100274.50;;;35.83;23.08
59588;BME280;45412;54.472;18.464;2023-08-12T10:37:18;100270.83;;;35.24;23.77
59588;BME280;45412;54.472;18.464;2023-08-12T10:40:19;100269.64;;;34.98;24.49
59588;BME280;45412;54.472;18.464;2023-08-12T10:43:06;100261.58;;;34.87;24.42
59588;BME280;45412;54.472;18.464;2023-08-12T10:45:53;100255.33;;;34.80;24.94
59588;BME280;45412;54.472;18.464;2023-08-12T10:48:56;100259.75;;;34.83;24.42
59588;BME280;45412;54.472;18.464;2023-08-12T10:51:50;100255.36;;;34.63;24.43
59588;BME280;45412;54.472;18.464;2023-08-12T10:54:38;100250.04;;;34.40;24.93
59588;BME280;45412;54.472;18.464;2023-08-12T10:57:37;100241.77;;;34.56;25.11
59588;BME280;45412;54.472;18.464;2023-08-12T11:00:26;100241.45;;;34.78;25.11
59588;BME280;45412;54.472;18.464;2023-08-12T11:03:14;100243.70;;;34.77;24.73
59588;BME280;45412;54.472;18.464;2023-08-12T11:06:02;100237.10;;;34.43;25.22
59588;BME280;45412;54.472;18.464;2023-08-12T11:08:52;100237.67;;;34.65;25.32
59588;BME280;45412;54.472;18.464;2023-08-12T11:11:39;100238.19;;;35.03;25.05
59588;BME280;45412;54.472;18.464;2023-08-12T11:14:29;100233.48;;;35.57;24.29
59588;BME280;45412;54.472;18.464;2023-08-12T11:17:16;100229.64;;;35.93;23.90
59588;BME280;45412;54.472;18.464;2023-08-12T11:20:13;100226.65;;;36.11;23.19
59588;BME280;45412;54.472;18.464;2023-08-12T11:23:01;100228.61;;;35.98;23.41
59588;BME280;45412;54.472;18.464;2023-08-12T11:25:48;100228.27;;;35.83;23.78
59588;BME280;45412;54.472;18.464;2023-08-12T11:28:37;100223.55;;;35.64;24.41
59588;BME280;45412;54.472;18.464;2023-08-12T11:31:24;100217.83;;;35.55;24.67
59588;BME280;45412;54.472;18.464;2023-08-12T11:34:11;100216.15;;;35.45;24.82
59588;BME280;45412;54.472;18.464;2023-08-12T11:36:59;100213.90;;;35.40;25.07
59588;BME280;45412;54.472;18.464;2023-08-12T11:39:45;100220.05;;;34.95;24.81
59588;BME280;45412;54.472;18.464;2023-08-12T11:42:32;100210.77;;;34.53;25.53
59588;BME280;45412;54.472;18.464;2023-08-12T11:45:22;100203.20;;;33.77;26.11
59588;BME280;45412;54.472;18.464;2023-08-12T11:48:10;100196.98;;;33.44;26.93
59588;BME280;45412;54.472;18.464;2023-08-12T11:50:57;100195.14;;;32.97;27.34
59588;BME280;45412;54.472;18.464;2023-08-12T11:53:44;100196.34;;;32.37;28.00
59588;BME280;45412;54.472;18.464;2023-08-12T11:56:31;100183.48;;;32.07;28.76
59588;BME280;45412;54.472;18.464;2023-08-12T11:59:18;100181.01;;;31.68;29.34
59588;BME280;45412;54.472;18.464;2023-08-12T12:02:05;100182.03;;;30.58;30.90
59588;BME280;45412;54.472;18.464;2023-08-12T12:04:52;100186.09;;;30.05;32.32
59588;BME280;45412;54.472;18.464;2023-08-12T12:07:39;100184.52;;;29.79;33.21
59588;BME280;45412;54.472;18.464;2023-08-12T12:10:32;100184.02;;;29.52;33.28
59588;BME280;45412;54.472;18.464;2023-08-12T12:13:23;100175.52;;;29.15;33.67
59588;BME280;45412;54.472;18.464;2023-08-12T12:16:12;100171.16;;;28.64;34.53
59588;BME280;45412;54.472;18.464;2023-08-12T12:18:58;100172.17;;;28.16;35.46
59588;BME280;45412;54.472;18.464;2023-08-12T12:21:50;100174.52;;;27.90;35.72
59588;BME280;45412;54.472;18.464;2023-08-12T12:24:46;100172.68;;;27.67;35.72
59588;BME280;45412;54.472;18.464;2023-08-12T12:27:34;100165.72;;;27.40;36.72
59588;BME280;45412;54.472;18.464;2023-08-12T12:30:21;100169.19;;;27.25;36.82
59588;BME280;45412;54.472;18.464;2023-08-12T12:33:08;100166.98;;;27.12;37.32
59588;BME280;45412;54.472;18.464;2023-08-12T12:35:55;100168.42;;;26.99;37.80
59588;BME280;45412;54.472;18.464;2023-08-12T12:38:46;100162.73;;;26.99;38.01
59588;BME280;45412;54.472;18.464;2023-08-12T12:41:33;100156.68;;;27.12;38.15
59588;BME280;45412;54.472;18.464;2023-08-12T12:44:20;100149.82;;;27.13;37.62
59588;BME280;45412;54.472;18.464;2023-08-12T12:47:07;100145.27;;;27.07;37.98
59588;BME280;45412;54.472;18.464;2023-08-12T12:49:57;100154.92;;;27.04;38.07
59588;BME280;45412;54.472;18.464;2023-08-12T12:52:43;100150.84;;;26.98;38.17
59588;BME280;45412;54.472;18.464;2023-08-12T12:55:30;100153.88;;;26.81;38.22
59588;BME280;45412;54.472;18.464;2023-08-12T12:58:17;100152.15;;;26.77;38.31
59588;BME280;45412;54.472;18.464;2023-08-12T13:01:04;100145.52;;;26.94;40.55
59588;BME280;45412;54.472;18.464;2023-08-12T13:03:51;100147.70;;;27.06;40.62
59588;BME280;45412;54.472;18.464;2023-08-12T13:06:38;100147.98;;;27.13;41.31
59588;BME280;45412;54.472;18.464;2023-08-12T13:09:25;100139.84;;;27.08;41.35
59588;BME280;45412;54.472;18.464;2023-08-12T13:12:11;100139.45;;;27.06;41.46
59588;BME280;45412;54.472;18.464;2023-08-12T13:14:59;100132.84;;;27.02;41.71
59588;BME280;45412;54.472;18.464;2023-08-12T13:17:48;100132.60;;;26.96;41.30
59588;BME280;45412;54.472;18.464;2023-08-12T13:20:36;100136.13;;;26.75;41.15
59588;BME280;45412;54.472;18.464;2023-08-12T13:23:23;100135.77;;;26.48;41.68
59588;BME280;45412;54.472;18.464;2023-08-12T13:26:12;100138.23;;;26.30;42.10
59588;BME280;45412;54.472;18.464;2023-08-12T13:28:59;100142.45;;;26.10;41.99
59588;BME280;45412;54.472;18.464;2023-08-12T13:31:45;100140.67;;;25.93;42.25
59588;BME280;45412;54.472;18.464;2023-08-12T13:34:32;100141.30;;;25.80;42.64
59588;BME280;45412;54.472;18.464;2023-08-12T13:37:19;100141.80;;;25.72;42.67
59588;BME280;45412;54.472;18.464;2023-08-12T13:40:06;100140.41;;;25.56;42.35
59588;BME280;45412;54.472;18.464;2023-08-12T13:42:53;100146.27;;;25.32;42.57
59588;BME280;45412;54.472;18.464;2023-08-12T13:45:40;100143.25;;;25.12;43.20
59588;BME280;45412;54.472;18.464;2023-08-12T13:48:27;100141.91;;;24.90;43.55
59588;BME280;45412;54.472;18.464;2023-08-12T13:51:14;100140.72;;;24.79;43.86
59588;BME280;45412;54.472;18.464;2023-08-12T13:54:00;100139.61;;;24.86;44.30
59588;BME280;45412;54.472;18.464;2023-08-12T13:56:48;100137.95;;;25.03;44.34
59588;BME280;45412;54.472;18.464;2023-08-12T13:59:35;100133.88;;;25.25;44.23
59588;BME280;45412;54.472;18.464;2023-08-12T14:02:21;100133.41;;;25.45;43.74
59588;BME280;45412;54.472;18.464;2023-08-12T14:05:10;100127.68;;;25.61;43.20
59588;BME280;45412;54.472;18.464;2023-08-12T14:07:57;100115.65;;;25.70;42.94
59588;BME280;45412;54.472;18.464;2023-08-12T14:10:46;100107.23;;;25.74;42.93
59588;BME280;45412;54.472;18.464;2023-08-12T14:13:33;100105.00;;;25.71;43.17
59588;BME280;45412;54.472;18.464;2023-08-12T14:16:20;100104.77;;;25.59;43.22
59588;BME280;45412;54.472;18.464;2023-08-12T14:19:07;100102.15;;;25.45;43.29
59588;BME280;45412;54.472;18.464;2023-08-12T14:21:53;100097.96;;;25.31;43.59
59588;BME280;45412;54.472;18.464;2023-08-12T14:24:41;100089.59;;;25.12;43.94
59588;BME280;45412;54.472;18.464;2023-08-12T14:27:29;100082.90;;;24.97;43.99